sensor_id;sensor_type;location;lat;lon;timestamp;temperature;humidity
13673;DHT22;6909;52.202;9.876;2022-10-16T00:01:10;12.70;99.90
13673;DHT22;6909;52.202;9.876;2022-10-16T00:03:37;12.70;99.90
13673;DHT22;6909;52.202;9.876;2022-10-16T00:06:05;12.70;99.90
13673;DHT22;6909;52.202;9.876;2022-10-16T00:08:33;12.80;99.90
13673;DHT22;6909;52.202;9.876;2022-10-16T00:11:02;12.70;99.90
13673;DHT22;6909;52.202;9.876;2022-10-16T00:13:30;12.70;99.90
13673;DHT22;6909;52.202;9.876;2022-10-16T00:15:58;12.70;99.90
13673;DHT22;6909;52.202;9.876;2022-10-16T00:18:26;12.70;99.90
13673;DHT22;6909;52.202;9.876;2022-10-16T00:20:53;12.70;99.90
13673;DHT22;6909;52.202;9.876;2022-10-16T00:23:21;12.80;99.90
13673;DHT22;6909;52.202;9.876;2022-10-16T00:25:55;12.70;99.90
13673;DHT22;6909;52.202;9.876;2022-10-16T00:28:22;12.70;99.90
13673;DHT22;6909;52.202;9.876;2022-10-16T00:30:50;12.60;99.90
13673;DHT22;6909;52.202;9.876;2022-10-16T00:33:18;12.70;99.90
13673;DHT22;6909;52.202;9.876;2022-10-16T00:35:44;12.60;99.90
13673;DHT22;6909;52.202;9.876;2022-10-16T00:38:11;12.60;99.90
13673;DHT22;6909;52.202;9.876;2022-10-16T00:40:38;12.50;99.90
13673;DHT22;6909;52.202;9.876;2022-10-16T00:43:12;12.50;99.90
13673;DHT22;6909;52.202;9.876;2022-10-16T00:45:39;12.50;99.90
13673;DHT22;6909;52.202;9.876;2022-10-16T00:48:11;12.50;99.90
13673;DHT22;6909;52.202;9.876;2022-10-16T00:50:39;12.50;99.90
13673;DHT22;6909;52.202;9.876;2022-10-16T00:53:09;12.60;99.90
13673;DHT22;6909;52.202;9.876;2022-10-16T00:55:36;12.50;99.90
13673;DHT22;6909;52.202;9.876;2022-10-16T00:58:06;12.60;99.90
13673;DHT22;6909;52.202;9.876;2022-10-16T01:00:32;12.60;99.90
13673;DHT22;6909;52.202;9.876;2022-10-16T01:03:01;12.70;99.90
13673;DHT22;6909;52.202;9.876;2022-10-16T01:05:33;12.70;99.90
13673;DHT22;6909;52.202;9.876;2022-10-16T01:08:12;12.70;99.90
13673;DHT22;6909;52.202;9.876;2022-10-16T01:10:45;12.70;99.90
13673;DHT22;6909;52.202;9.876;2022-10-16T01:13:18;12.70;99.90
13673;DHT22;6909;52.202;9.876;2022-10-16T01:15:52;12.60;99.90
13673;DHT22;6909;52.202;9.876;2022-10-16T01:18:27;12.60;99.90
13673;DHT22;6909;52.202;9.876;2022-10-16T01:21:01;12.50;99.90
13673;DHT22;6909;52.202;9.876;2022-10-16T01:23:38;12.50;99.90
13673;DHT22;6909;52.202;9.876;2022-10-16T01:26:28;12.50;99.90
13673;DHT22;6909;52.202;9.876;2022-10-16T01:29:03;12.50;99.90
13673;DHT22;6909;52.202;9.876;2022-10-16T01:31:33;12.50;99.90
13673;DHT22;6909;52.202;9.876;2022-10-16T01:34:05;12.50;99.90
13673;DHT22;6909;52.202;9.876;2022-10-16T01:37:11;12.40;99.90
13673;DHT22;6909;52.202;9.876;2022-10-16T01:39:41;12.40;99.90
13673;DHT22;6909;52.202;9.876;2022-10-16T01:42:12;12.40;99.90
13673;DHT22;6909;52.202;9.876;2022-10-16T01:44:43;12.40;99.90
13673;DHT22;6909;52.202;9.876;2022-10-16T01:47:13;12.50;99.90
13673;DHT22;6909;52.202;9.876;2022-10-16T01:49:41;12.60;99.90
13673;DHT22;6909;52.202;9.876;2022-10-16T01:52:11;12.60;99.90
13673;DHT22;6909;52.202;9.876;2022-10-16T01:54:42;12.60;99.90
13673;DHT22;6909;52.202;9.876;2022-10-16T01:57:10;12.60;99.90
13673;DHT22;6909;52.202;9.876;2022-10-16T01:59:44;12.60;99.90
13673;DHT22;6909;52.202;9.876;2022-10-16T02:02:16;12.70;99.90
13673;DHT22;6909;52.202;9.876;2022-10-16T02:04:46;12.60;99.90
13673;DHT22;6909;52.202;9.876;2022-10-16T02:07:14;12.60;99.90
13673;DHT22;6909;52.202;9.876;2022-10-16T02:09:41;12.60;99.90
13673;DHT22;6909;52.202;9.876;2022-10-16T02:12:11;12.60;99.90
13673;DHT22;6909;52.202;9.876;2022-10-16T02:14:40;12.40;99.90
13673;DHT22;6909;52.202;9.876;2022-10-16T02:17:13;12.40;99.90
13673;DHT22;6909;52.202;9.876;2022-10-16T02:19:40;12.40;99.90
13673;DHT22;6909;52.202;9.876;2022-10-16T02:22:10;12.30;99.90
13673;DHT22;6909;52.202;9.876;2022-10-16T02:24:48;12.20;99.90
13673;DHT22;6909;52.202;9.876;2022-10-16T02:27:21;12.20;99.90
13673;DHT22;6909;52.202;9.876;2022-10-16T02:29:53;12.10;99.90
13673;DHT22;6909;52.202;9.876;2022-10-16T02:32:30;12.10;99.90
13673;DHT22;6909;52.202;9.876;2022-10-16T02:34:59;12.00;99.90
13673;DHT22;6909;52.202;9.876;2022-10-16T02:37:27;11.90;99.90
13673;DHT22;6909;52.202;9.876;2022-10-16T02:39:56;11.90;99.90
13673;DHT22;6909;52.202;9.876;2022-10-16T02:42:28;11.90;99.90
13673;DHT22;6909;52.202;9.876;2022-10-16T02:44:56;11.90;99.90
13673;DHT22;6909;52.202;9.876;2022-10-16T02:47:23;11.90;99.90
13673;DHT22;6909;52.202;9.876;2022-10-16T02:49:51;12.00;99.90
13673;DHT22;6909;52.202;9.876;2022-10-16T02:52:17;11.90;99.90
13673;DHT22;6909;52.202;9.876;2022-10-16T02:54:44;11.80;99.90
13673;DHT22;6909;52.202;9.876;2022-10-16T02:57:11;11.60;99.90
13673;DHT22;6909;52.202;9.876;2022-10-16T02:59:38;11.50;99.90
13673;DHT22;6909;52.202;9.876;2022-10-16T03:02:05;11.40;99.90
13673;DHT22;6909;52.202;9.876;2022-10-16T03:04:31;11.40;99.90
13673;DHT22;6909;52.202;9.876;2022-10-16T03:06:59;11.50;99.90
13673;DHT22;6909;52.202;9.876;2022-10-16T03:09:26;11.70;99.90
13673;DHT22;6909;52.202;9.876;2022-10-16T03:11:53;11.90;99.90
13673;DHT22;6909;52.202;9.876;2022-10-16T03:14:20;12.10;99.90
13673;DHT22;6909;52.202;9.876;2022-10-16T03:16:46;12.10;99.90
13673;DHT22;6909;52.202;9.876;2022-10-16T03:19:13;12.50;99.90
13673;DHT22;6909;52.202;9.876;2022-10-16T03:21:40;12.80;99.90
13673;DHT22;6909;52.202;9.876;2022-10-16T03:24:08;13.00;99.90
13673;DHT22;6909;52.202;9.876;2022-10-16T03:26:35;13.10;99.90
13673;DHT22;6909;52.202;9.876;2022-10-16T03:29:02;12.90;99.90
13673;DHT22;6909;52.202;9.876;2022-10-16T03:31:29;12.90;99.90
13673;DHT22;6909;52.202;9.876;2022-10-16T03:33:55;12.70;99.90
13673;DHT22;6909;52.202;9.876;2022-10-16T03:36:22;12.40;99.90
13673;DHT22;6909;52.202;9.876;2022-10-16T03:38:49;12.50;99.90
13673;DHT22;6909;52.202;9.876;2022-10-16T03:41:17;12.60;99.90
13673;DHT22;6909;52.202;9.876;2022-10-16T03:43:44;12.90;99.90
13673;DHT22;6909;52.202;9.876;2022-10-16T03:46:11;13.00;99.90
13673;DHT22;6909;52.202;9.876;2022-10-16T03:48:37;12.90;99.90
13673;DHT22;6909;52.202;9.876;2022-10-16T03:51:05;13.00;99.90
13673;DHT22;6909;52.202;9.876;2022-10-16T03:53:32;13.10;99.90
13673;DHT22;6909;52.202;9.876;2022-10-16T03:55:58;13.00;99.90
13673;DHT22;6909;52.202;9.876;2022-10-16T03:58:26;12.80;99.90
13673;DHT22;6909;52.202;9.876;2022-10-16T04:00:54;12.60;99.90
13673;DHT22;6909;52.202;9.876;2022-10-16T04:03:20;12.50;99.90
13673;DHT22;6909;52.202;9.876;2022-10-16T04:05:48;12.30;99.90
13673;DHT22;6909;52.202;9.876;2022-10-16T04:08:15;12.10;99.90
13673;DHT22;6909;52.202;9.876;2022-10-16T04:10:42;12.10;99.90
13673;DHT22;6909;52.202;9.876;2022-10-16T04:13:09;12.10;99.90
13673;DHT22;6909;52.202;9.876;2022-10-16T04:15:38;12.10;99.90
13673;DHT22;6909;52.202;9.876;2022-10-16T04:18:05;12.20;99.90
13673;DHT22;6909;52.202;9.876;2022-10-16T04:20:32;12.40;99.90
13673;DHT22;6909;52.202;9.876;2022-10-16T04:22:59;12.50;99.90
13673;DHT22;6909;52.202;9.876;2022-10-16T04:25:25;12.60;99.90
13673;DHT22;6909;52.202;9.876;2022-10-16T04:27:52;12.60;99.90
13673;DHT22;6909;52.202;9.876;2022-10-16T04:30:20;12.40;99.90
13673;DHT22;6909;52.202;9.876;2022-10-16T04:32:49;12.30;99.90
13673;DHT22;6909;52.202;9.876;2022-10-16T04:35:16;12.10;99.90
13673;DHT22;6909;52.202;9.876;2022-10-16T04:37:43;12.10;99.90
13673;DHT22;6909;52.202;9.876;2022-10-16T04:40:10;12.00;99.90
13673;DHT22;6909;52.202;9.876;2022-10-16T04:42:37;12.00;99.90
13673;DHT22;6909;52.202;9.876;2022-10-16T04:45:05;11.90;99.90
13673;DHT22;6909;52.202;9.876;2022-10-16T04:47:32;12.10;99.90
13673;DHT22;6909;52.202;9.876;2022-10-16T04:50:00;12.10;99.90
13673;DHT22;6909;52.202;9.876;2022-10-16T04:52:27;12.20;99.90
13673;DHT22;6909;52.202;9.876;2022-10-16T04:54:54;12.20;99.90
13673;DHT22;6909;52.202;9.876;2022-10-16T04:57:25;12.20;99.90
13673;DHT22;6909;52.202;9.876;2022-10-16T04:59:52;12.20;99.90
13673;DHT22;6909;52.202;9.876;2022-10-16T05:02:19;12.10;99.90
13673;DHT22;6909;52.202;9.876;2022-10-16T05:04:45;12.10;99.90
13673;DHT22;6909;52.202;9.876;2022-10-16T05:07:13;12.10;99.90
13673;DHT22;6909;52.202;9.876;2022-10-16T05:09:40;12.20;99.90
13673;DHT22;6909;52.202;9.876;2022-10-16T05:12:07;12.30;99.90
13673;DHT22;6909;52.202;9.876;2022-10-16T05:14:34;12.40;99.90
13673;DHT22;6909;52.202;9.876;2022-10-16T05:17:01;12.30;99.90
13673;DHT22;6909;52.202;9.876;2022-10-16T05:19:27;12.30;99.90
13673;DHT22;6909;52.202;9.876;2022-10-16T05:21:54;12.40;99.90
13673;DHT22;6909;52.202;9.876;2022-10-16T05:24:22;12.40;99.90
13673;DHT22;6909;52.202;9.876;2022-10-16T05:26:50;12.40;99.90
13673;DHT22;6909;52.202;9.876;2022-10-16T05:29:16;12.40;99.90
13673;DHT22;6909;52.202;9.876;2022-10-16T05:31:43;12.40;99.90
13673;DHT22;6909;52.202;9.876;2022-10-16T05:34:10;12.40;99.90
13673;DHT22;6909;52.202;9.876;2022-10-16T05:36:36;12.30;99.90
13673;DHT22;6909;52.202;9.876;2022-10-16T05:39:03;12.20;99.90
13673;DHT22;6909;52.202;9.876;2022-10-16T05:41:31;12.20;99.90
13673;DHT22;6909;52.202;9.876;2022-10-16T05:43:58;12.10;99.90
13673;DHT22;6909;52.202;9.876;2022-10-16T05:46:25;12.10;99.90
13673;DHT22;6909;52.202;9.876;2022-10-16T05:48:52;12.00;99.90
13673;DHT22;6909;52.202;9.876;2022-10-16T05:51:19;12.10;99.90
13673;DHT22;6909;52.202;9.876;2022-10-16T05:53:46;12.20;99.90
13673;DHT22;6909;52.202;9.876;2022-10-16T05:56:12;12.20;99.90
13673;DHT22;6909;52.202;9.876;2022-10-16T05:58:41;12.20;99.90
13673;DHT22;6909;52.202;9.876;2022-10-16T06:01:11;12.20;99.90
13673;DHT22;6909;52.202;9.876;2022-10-16T06:03:38;12.20;99.90
13673;DHT22;6909;52.202;9.876;2022-10-16T06:06:09;12.30;99.90
13673;DHT22;6909;52.202;9.876;2022-10-16T06:08:36;12.10;99.90
13673;DHT22;6909;52.202;9.876;2022-10-16T06:11:04;12.10;99.90
13673;DHT22;6909;52.202;9.876;2022-10-16T06:13:32;12.10;99.90
13673;DHT22;6909;52.202;9.876;2022-10-16T06:16:01;11.90;99.90
13673;DHT22;6909;52.202;9.876;2022-10-16T06:18:28;12.00;99.90
13673;DHT22;6909;52.202;9.876;2022-10-16T06:20:56;12.10;99.90
13673;DHT22;6909;52.202;9.876;2022-10-16T06:23:23;12.20;99.90
13673;DHT22;6909;52.202;9.876;2022-10-16T06:25:49;12.30;99.90
13673;DHT22;6909;52.202;9.876;2022-10-16T06:28:17;12.40;99.90
13673;DHT22;6909;52.202;9.876;2022-10-16T06:30:43;12.50;99.90
13673;DHT22;6909;52.202;9.876;2022-10-16T06:33:12;12.70;99.90
13673;DHT22;6909;52.202;9.876;2022-10-16T06:35:39;12.80;99.90
13673;DHT22;6909;52.202;9.876;2022-10-16T06:38:05;13.00;99.90
13673;DHT22;6909;52.202;9.876;2022-10-16T06:40:32;13.20;99.90
13673;DHT22;6909;52.202;9.876;2022-10-16T06:42:59;13.30;99.90
13673;DHT22;6909;52.202;9.876;2022-10-16T06:45:25;13.70;99.90
13673;DHT22;6909;52.202;9.876;2022-10-16T06:47:52;14.50;99.90
13673;DHT22;6909;52.202;9.876;2022-10-16T06:50:20;15.80;99.90
13673;DHT22;6909;52.202;9.876;2022-10-16T06:52:47;16.60;99.90
13673;DHT22;6909;52.202;9.876;2022-10-16T06:55:14;17.30;99.90
13673;DHT22;6909;52.202;9.876;2022-10-16T06:57:42;17.30;99.90
13673;DHT22;6909;52.202;9.876;2022-10-16T07:00:10;18.70;99.90
13673;DHT22;6909;52.202;9.876;2022-10-16T07:02:37;19.60;99.90
13673;DHT22;6909;52.202;9.876;2022-10-16T07:05:04;20.00;99.90
13673;DHT22;6909;52.202;9.876;2022-10-16T07:07:32;20.50;99.90
13673;DHT22;6909;52.202;9.876;2022-10-16T07:09:59;20.60;99.90
13673;DHT22;6909;52.202;9.876;2022-10-16T07:12:25;21.30;99.90
13673;DHT22;6909;52.202;9.876;2022-10-16T07:14:52;21.30;99.90
13673;DHT22;6909;52.202;9.876;2022-10-16T07:17:20;21.50;99.90
13673;DHT22;6909;52.202;9.876;2022-10-16T07:19:47;21.20;99.90
13673;DHT22;6909;52.202;9.876;2022-10-16T07:22:13;20.40;99.90
13673;DHT22;6909;52.202;9.876;2022-10-16T07:24:41;20.00;99.90
13673;DHT22;6909;52.202;9.876;2022-10-16T07:27:08;20.10;99.90
13673;DHT22;6909;52.202;9.876;2022-10-16T07:29:35;20.10;99.90
13673;DHT22;6909;52.202;9.876;2022-10-16T07:32:02;20.30;99.90
13673;DHT22;6909;52.202;9.876;2022-10-16T07:34:29;20.30;99.90
13673;DHT22;6909;52.202;9.876;2022-10-16T07:36:56;19.80;99.90
13673;DHT22;6909;52.202;9.876;2022-10-16T07:39:23;19.10;99.90
13673;DHT22;6909;52.202;9.876;2022-10-16T07:41:51;18.60;99.90
13673;DHT22;6909;52.202;9.876;2022-10-16T07:44:17;18.20;99.90
13673;DHT22;6909;52.202;9.876;2022-10-16T07:46:44;18.10;99.90
13673;DHT22;6909;52.202;9.876;2022-10-16T07:49:11;18.10;99.90
13673;DHT22;6909;52.202;9.876;2022-10-16T07:51:38;18.10;99.90
13673;DHT22;6909;52.202;9.876;2022-10-16T07:54:04;18.20;99.90
13673;DHT22;6909;52.202;9.876;2022-10-16T07:56:31;18.40;99.90
13673;DHT22;6909;52.202;9.876;2022-10-16T07:59:00;18.30;99.90
13673;DHT22;6909;52.202;9.876;2022-10-16T08:01:26;18.30;99.90
13673;DHT22;6909;52.202;9.876;2022-10-16T08:03:53;18.30;99.90
13673;DHT22;6909;52.202;9.876;2022-10-16T08:06:21;18.00;99.90
13673;DHT22;6909;52.202;9.876;2022-10-16T08:08:48;17.60;99.90
13673;DHT22;6909;52.202;9.876;2022-10-16T08:11:15;17.50;99.90
13673;DHT22;6909;52.202;9.876;2022-10-16T08:13:42;17.50;99.90
13673;DHT22;6909;52.202;9.876;2022-10-16T08:16:10;17.40;99.90
13673;DHT22;6909;52.202;9.876;2022-10-16T08:18:37;17.40;99.90
13673;DHT22;6909;52.202;9.876;2022-10-16T08:21:05;17.30;96.20
13673;DHT22;6909;52.202;9.876;2022-10-16T08:23:32;17.40;99.90
13673;DHT22;6909;52.202;9.876;2022-10-16T08:26:03;17.40;22.60
13673;DHT22;6909;52.202;9.876;2022-10-16T08:28:30;17.50;9.00
13673;DHT22;6909;52.202;9.876;2022-10-16T08:31:04;17.50;1.00
13673;DHT22;6909;52.202;9.876;2022-10-16T08:33:32;17.40;1.00
13673;DHT22;6909;52.202;9.876;2022-10-16T08:36:00;17.40;1.00
13673;DHT22;6909;52.202;9.876;2022-10-16T08:38:27;17.50;1.00
13673;DHT22;6909;52.202;9.876;2022-10-16T08:40:57;17.60;1.00
13673;DHT22;6909;52.202;9.876;2022-10-16T08:43:43;17.80;1.00
13673;DHT22;6909;52.202;9.876;2022-10-16T08:46:24;17.90;1.00
13673;DHT22;6909;52.202;9.876;2022-10-16T08:48:57;18.10;99.90
13673;DHT22;6909;52.202;9.876;2022-10-16T08:51:26;18.20;99.90
13673;DHT22;6909;52.202;9.876;2022-10-16T08:53:55;18.20;1.00
13673;DHT22;6909;52.202;9.876;2022-10-16T08:56:23;18.10;99.90
13673;DHT22;6909;52.202;9.876;2022-10-16T08:58:52;18.00;1.00
13673;DHT22;6909;52.202;9.876;2022-10-16T09:01:20;17.70;1.00
13673;DHT22;6909;52.202;9.876;2022-10-16T09:04:07;17.60;99.90
13673;DHT22;6909;52.202;9.876;2022-10-16T09:06:46;17.40;1.00
13673;DHT22;6909;52.202;9.876;2022-10-16T09:09:32;17.20;99.90
13673;DHT22;6909;52.202;9.876;2022-10-16T09:12:10;17.10;99.90
13673;DHT22;6909;52.202;9.876;2022-10-16T09:14:50;17.30;99.90
13673;DHT22;6909;52.202;9.876;2022-10-16T09:17:40;17.30;1.00
13673;DHT22;6909;52.202;9.876;2022-10-16T09:20:31;17.60;1.00
13673;DHT22;6909;52.202;9.876;2022-10-16T09:23:15;17.50;1.00
13673;DHT22;6909;52.202;9.876;2022-10-16T09:25:44;17.40;99.90
13673;DHT22;6909;52.202;9.876;2022-10-16T09:28:13;17.50;99.90
13673;DHT22;6909;52.202;9.876;2022-10-16T09:30:40;17.60;73.30
13673;DHT22;6909;52.202;9.876;2022-10-16T09:33:08;17.70;1.00
13673;DHT22;6909;52.202;9.876;2022-10-16T09:35:38;17.70;1.00
13673;DHT22;6909;52.202;9.876;2022-10-16T09:38:06;17.80;1.00
13673;DHT22;6909;52.202;9.876;2022-10-16T09:40:34;17.80;99.90
13673;DHT22;6909;52.202;9.876;2022-10-16T09:43:07;17.90;99.90
13673;DHT22;6909;52.202;9.876;2022-10-16T09:45:39;17.90;99.90
13673;DHT22;6909;52.202;9.876;2022-10-16T09:48:11;17.90;1.00
13673;DHT22;6909;52.202;9.876;2022-10-16T09:50:40;17.90;1.00
13673;DHT22;6909;52.202;9.876;2022-10-16T09:53:11;17.90;1.00
13673;DHT22;6909;52.202;9.876;2022-10-16T09:55:48;17.90;99.90
13673;DHT22;6909;52.202;9.876;2022-10-16T09:58:14;17.90;1.00
13673;DHT22;6909;52.202;9.876;2022-10-16T10:00:41;18.00;99.90
13673;DHT22;6909;52.202;9.876;2022-10-16T10:03:10;18.00;99.90
13673;DHT22;6909;52.202;9.876;2022-10-16T10:05:40;18.10;78.50
13673;DHT22;6909;52.202;9.876;2022-10-16T10:08:15;18.20;1.00
13673;DHT22;6909;52.202;9.876;2022-10-16T10:10:48;18.10;1.00
13673;DHT22;6909;52.202;9.876;2022-10-16T10:13:18;18.20;1.00
13673;DHT22;6909;52.202;9.876;2022-10-16T10:15:45;18.30;1.00
13673;DHT22;6909;52.202;9.876;2022-10-16T10:18:17;18.40;1.00
13673;DHT22;6909;52.202;9.876;2022-10-16T10:20:57;18.50;99.90
13673;DHT22;6909;52.202;9.876;2022-10-16T10:23:26;18.70;99.90
13673;DHT22;6909;52.202;9.876;2022-10-16T10:25:56;18.70;1.00
13673;DHT22;6909;52.202;9.876;2022-10-16T10:28:50;18.90;1.00
13673;DHT22;6909;52.202;9.876;2022-10-16T10:31:23;18.80;1.00
13673;DHT22;6909;52.202;9.876;2022-10-16T10:33:57;18.70;1.00
13673;DHT22;6909;52.202;9.876;2022-10-16T10:36:29;18.60;1.00
13673;DHT22;6909;52.202;9.876;2022-10-16T10:38:59;18.70;99.90
13673;DHT22;6909;52.202;9.876;2022-10-16T10:41:39;18.50;99.90
13673;DHT22;6909;52.202;9.876;2022-10-16T10:44:16;18.30;14.50
13673;DHT22;6909;52.202;9.876;2022-10-16T10:46:50;18.00;1.00
13673;DHT22;6909;52.202;9.876;2022-10-16T10:49:27;18.00;1.00
13673;DHT22;6909;52.202;9.876;2022-10-16T10:52:11;18.20;1.00
13673;DHT22;6909;52.202;9.876;2022-10-16T10:54:44;18.50;1.00
13673;DHT22;6909;52.202;9.876;2022-10-16T10:57:20;18.60;1.00
13673;DHT22;6909;52.202;9.876;2022-10-16T11:00:01;18.60;1.00
13673;DHT22;6909;52.202;9.876;2022-10-16T11:02:34;18.60;1.00
13673;DHT22;6909;52.202;9.876;2022-10-16T11:05:28;18.70;1.00
13673;DHT22;6909;52.202;9.876;2022-10-16T11:08:00;18.50;99.90
13673;DHT22;6909;52.202;9.876;2022-10-16T11:10:30;18.60;99.90
13673;DHT22;6909;52.202;9.876;2022-10-16T11:13:07;18.60;99.90
13673;DHT22;6909;52.202;9.876;2022-10-16T11:15:39;18.70;99.90
13673;DHT22;6909;52.202;9.876;2022-10-16T11:18:13;18.80;96.10
13673;DHT22;6909;52.202;9.876;2022-10-16T11:20:45;18.70;37.70
13673;DHT22;6909;52.202;9.876;2022-10-16T11:23:21;18.90;1.00
13673;DHT22;6909;52.202;9.876;2022-10-16T11:25:50;18.90;1.00
13673;DHT22;6909;52.202;9.876;2022-10-16T11:28:20;18.90;1.00
13673;DHT22;6909;52.202;9.876;2022-10-16T11:30:54;19.00;1.00
13673;DHT22;6909;52.202;9.876;2022-10-16T11:33:28;19.10;1.00
13673;DHT22;6909;52.202;9.876;2022-10-16T11:36:02;19.10;1.00
13673;DHT22;6909;52.202;9.876;2022-10-16T11:38:34;19.20;1.00
13673;DHT22;6909;52.202;9.876;2022-10-16T11:41:20;19.20;1.00
13673;DHT22;6909;52.202;9.876;2022-10-16T11:43:56;19.40;1.00
13673;DHT22;6909;52.202;9.876;2022-10-16T11:46:26;19.50;1.00
13673;DHT22;6909;52.202;9.876;2022-10-16T11:48:57;19.60;1.00
13673;DHT22;6909;52.202;9.876;2022-10-16T11:51:32;19.50;99.90
13673;DHT22;6909;52.202;9.876;2022-10-16T11:54:08;19.70;99.90
13673;DHT22;6909;52.202;9.876;2022-10-16T11:56:40;19.80;99.90
13673;DHT22;6909;52.202;9.876;2022-10-16T11:59:13;19.80;99.90
13673;DHT22;6909;52.202;9.876;2022-10-16T12:01:47;19.90;99.90
13673;DHT22;6909;52.202;9.876;2022-10-16T12:04:21;19.80;99.90
13673;DHT22;6909;52.202;9.876;2022-10-16T12:06:57;19.90;90.00
13673;DHT22;6909;52.202;9.876;2022-10-16T12:09:29;19.90;1.00
13673;DHT22;6909;52.202;9.876;2022-10-16T12:11:56;19.80;1.00
13673;DHT22;6909;52.202;9.876;2022-10-16T12:14:44;19.80;1.00
13673;DHT22;6909;52.202;9.876;2022-10-16T12:17:25;19.90;1.00
13673;DHT22;6909;52.202;9.876;2022-10-16T12:19:59;20.00;1.00
13673;DHT22;6909;52.202;9.876;2022-10-16T12:22:28;19.90;1.00
13673;DHT22;6909;52.202;9.876;2022-10-16T12:24:57;19.90;1.00
13673;DHT22;6909;52.202;9.876;2022-10-16T12:27:28;19.90;1.00
13673;DHT22;6909;52.202;9.876;2022-10-16T12:29:57;20.00;1.00
13673;DHT22;6909;52.202;9.876;2022-10-16T12:32:29;20.10;1.00
13673;DHT22;6909;52.202;9.876;2022-10-16T12:34:57;20.00;1.00
13673;DHT22;6909;52.202;9.876;2022-10-16T12:37:26;19.90;1.00
13673;DHT22;6909;52.202;9.876;2022-10-16T12:39:55;19.90;1.00
13673;DHT22;6909;52.202;9.876;2022-10-16T12:42:32;19.80;1.00
13673;DHT22;6909;52.202;9.876;2022-10-16T12:45:00;19.70;1.00
13673;DHT22;6909;52.202;9.876;2022-10-16T12:47:37;19.70;1.00
13673;DHT22;6909;52.202;9.876;2022-10-16T12:50:24;19.70;1.00
13673;DHT22;6909;52.202;9.876;2022-10-16T12:52:52;19.70;1.00
13673;DHT22;6909;52.202;9.876;2022-10-16T12:55:20;19.50;1.00
13673;DHT22;6909;52.202;9.876;2022-10-16T12:58:09;19.30;1.00
13673;DHT22;6909;52.202;9.876;2022-10-16T13:00:44;19.20;1.00
13673;DHT22;6909;52.202;9.876;2022-10-16T13:03:36;19.10;1.00
13673;DHT22;6909;52.202;9.876;2022-10-16T13:06:17;19.20;1.00
13673;DHT22;6909;52.202;9.876;2022-10-16T13:08:58;19.20;1.00
13673;DHT22;6909;52.202;9.876;2022-10-16T13:11:35;19.10;1.00
13673;DHT22;6909;52.202;9.876;2022-10-16T13:17:09;19.10;99.90
13673;DHT22;6909;52.202;9.876;2022-10-16T13:19:42;18.90;99.90
13673;DHT22;6909;52.202;9.876;2022-10-16T13:22:17;18.80;99.90
13673;DHT22;6909;52.202;9.876;2022-10-16T13:24:58;18.70;99.90
13673;DHT22;6909;52.202;9.876;2022-10-16T13:27:34;18.90;99.90
13673;DHT22;6909;52.202;9.876;2022-10-16T13:30:12;19.00;99.90
13673;DHT22;6909;52.202;9.876;2022-10-16T13:32:45;19.10;99.90
13673;DHT22;6909;52.202;9.876;2022-10-16T13:35:20;19.10;99.90
13673;DHT22;6909;52.202;9.876;2022-10-16T13:37:47;19.40;99.90
13673;DHT22;6909;52.202;9.876;2022-10-16T13:40:19;19.60;99.90
13673;DHT22;6909;52.202;9.876;2022-10-16T13:42:46;19.60;99.90
13673;DHT22;6909;52.202;9.876;2022-10-16T13:45:22;19.60;99.90
13673;DHT22;6909;52.202;9.876;2022-10-16T13:48:00;19.60;99.90
13673;DHT22;6909;52.202;9.876;2022-10-16T13:50:27;19.50;99.90
13673;DHT22;6909;52.202;9.876;2022-10-16T13:53:03;19.40;99.90
13673;DHT22;6909;52.202;9.876;2022-10-16T13:55:31;19.50;99.90
13673;DHT22;6909;52.202;9.876;2022-10-16T13:58:05;19.50;99.90
13673;DHT22;6909;52.202;9.876;2022-10-16T14:00:33;19.60;99.90
13673;DHT22;6909;52.202;9.876;2022-10-16T14:03:02;19.60;99.90
13673;DHT22;6909;52.202;9.876;2022-10-16T14:05:29;19.60;99.90
13673;DHT22;6909;52.202;9.876;2022-10-16T14:07:56;19.60;99.90
13673;DHT22;6909;52.202;9.876;2022-10-16T14:10:26;19.40;99.90
13673;DHT22;6909;52.202;9.876;2022-10-16T14:13:01;19.20;99.90
13673;DHT22;6909;52.202;9.876;2022-10-16T14:15:30;19.20;99.90
13673;DHT22;6909;52.202;9.876;2022-10-16T14:17:59;19.10;99.90
13673;DHT22;6909;52.202;9.876;2022-10-16T14:20:29;19.10;99.90
13673;DHT22;6909;52.202;9.876;2022-10-16T14:23:01;19.20;99.90
13673;DHT22;6909;52.202;9.876;2022-10-16T14:25:30;19.20;99.90
13673;DHT22;6909;52.202;9.876;2022-10-16T14:28:02;19.20;99.90
13673;DHT22;6909;52.202;9.876;2022-10-16T14:30:30;19.20;99.90
13673;DHT22;6909;52.202;9.876;2022-10-16T14:33:01;19.20;99.90
13673;DHT22;6909;52.202;9.876;2022-10-16T14:35:30;19.20;99.90
13673;DHT22;6909;52.202;9.876;2022-10-16T14:37:59;19.20;99.90
13673;DHT22;6909;52.202;9.876;2022-10-16T14:40:28;19.20;99.90
13673;DHT22;6909;52.202;9.876;2022-10-16T14:42:55;19.20;99.90
13673;DHT22;6909;52.202;9.876;2022-10-16T14:45:24;19.10;99.90
13673;DHT22;6909;52.202;9.876;2022-10-16T14:47:53;19.00;99.90
13673;DHT22;6909;52.202;9.876;2022-10-16T14:50:22;18.90;99.90
13673;DHT22;6909;52.202;9.876;2022-10-16T14:52:49;18.90;99.90
13673;DHT22;6909;52.202;9.876;2022-10-16T14:55:16;19.00;99.90
13673;DHT22;6909;52.202;9.876;2022-10-16T14:57:44;18.90;99.90
13673;DHT22;6909;52.202;9.876;2022-10-16T15:00:17;18.80;99.90
13673;DHT22;6909;52.202;9.876;2022-10-16T15:02:45;18.80;99.90
13673;DHT22;6909;52.202;9.876;2022-10-16T15:05:15;18.60;99.90
13673;DHT22;6909;52.202;9.876;2022-10-16T15:07:43;18.60;99.90
13673;DHT22;6909;52.202;9.876;2022-10-16T15:10:11;18.60;99.90
13673;DHT22;6909;52.202;9.876;2022-10-16T15:12:38;18.60;99.90
13673;DHT22;6909;52.202;9.876;2022-10-16T15:15:35;18.30;99.90
13673;DHT22;6909;52.202;9.876;2022-10-16T15:18:04;18.20;99.90
13673;DHT22;6909;52.202;9.876;2022-10-16T15:20:33;18.10;99.90
13673;DHT22;6909;52.202;9.876;2022-10-16T15:23:03;17.90;99.90
13673;DHT22;6909;52.202;9.876;2022-10-16T15:25:37;17.90;99.90
13673;DHT22;6909;52.202;9.876;2022-10-16T15:28:05;17.90;99.90
13673;DHT22;6909;52.202;9.876;2022-10-16T15:30:33;17.90;99.90
13673;DHT22;6909;52.202;9.876;2022-10-16T15:33:00;17.90;99.90
13673;DHT22;6909;52.202;9.876;2022-10-16T15:35:27;17.80;99.90
13673;DHT22;6909;52.202;9.876;2022-10-16T15:37:54;17.70;99.90
13673;DHT22;6909;52.202;9.876;2022-10-16T15:40:23;17.50;99.90
13673;DHT22;6909;52.202;9.876;2022-10-16T15:42:50;17.30;99.90
13673;DHT22;6909;52.202;9.876;2022-10-16T15:45:16;17.10;99.90
13673;DHT22;6909;52.202;9.876;2022-10-16T15:47:44;16.80;99.90
13673;DHT22;6909;52.202;9.876;2022-10-16T15:50:12;16.70;1.00
13673;DHT22;6909;52.202;9.876;2022-10-16T15:52:40;16.50;1.00
13673;DHT22;6909;52.202;9.876;2022-10-16T15:55:07;16.30;1.00
13673;DHT22;6909;52.202;9.876;2022-10-16T15:57:36;16.10;1.00
13673;DHT22;6909;52.202;9.876;2022-10-16T16:00:07;16.10;1.00
13673;DHT22;6909;52.202;9.876;2022-10-16T16:02:33;15.90;1.00
13673;DHT22;6909;52.202;9.876;2022-10-16T16:05:00;15.80;1.00
13673;DHT22;6909;52.202;9.876;2022-10-16T16:07:27;15.60;1.00
13673;DHT22;6909;52.202;9.876;2022-10-16T16:09:54;15.40;1.00
13673;DHT22;6909;52.202;9.876;2022-10-16T16:12:21;15.20;35.70